Time;durP1;ratioP1;P1;durP2;ratioP2;P2;SDS_P1;SDS_P2;PMS_P1;PMS_P2;Temp;Humidity;BMP_temperature;BMP_pressure;BME280_temperature;BME280_humidity;BME280_pressure;Samples;Min_cycle;Max_cycle;Signal;HPM_P1;HPM_P2
2020/12/12 00:04:02;;;;;;;48.30;18.00;;;4.30;99.90;;;;;;10306373;28;20054;-69
2020/12/12 00:09:04;;;;;;;48.25;18.05;;;4.20;99.90;;;;;;10288057;28;20050;-69
2020/12/12 00:14:05;;;;;;;45.83;18.10;;;4.20;99.90;;;;;;10282747;28;20049;-69
2020/12/12 00:19:06;;;;;;;56.42;20.35;;;4.20;99.90;;;;;;10287404;28;20054;-69
2020/12/12 00:24:07;;;;;;;44.72;18.42;;;4.20;99.90;;;;;;10286922;28;20058;-69
2020/12/12 00:29:09;;;;;;;45.22;17.88;;;4.30;99.90;;;;;;10288661;28;20046;-69
2020/12/12 00:34:11;;;;;;;46.10;18.20;;;4.20;99.90;;;;;;10282443;28;20050;-69
2020/12/12 00:39:12;;;;;;;44.70;18.33;;;4.20;99.90;;;;;;10285019;28;20070;-69
2020/12/12 00:44:15;;;;;;;51.35;19.92;;;4.20;99.90;;;;;;10281551;28;20523;-69
2020/12/12 00:49:16;;;;;;;53.25;18.08;;;4.10;99.90;;;;;;10278289;28;20063;-69
2020/12/12 00:54:17;;;;;;;49.83;19.17;;;4.20;99.90;;;;;;10278745;28;20093;-69
2020/12/12 00:59:18;;;;;;;58.80;20.48;;;4.20;99.90;;;;;;10276105;28;20086;-69
2020/12/12 01:04:20;;;;;;;48.92;18.55;;;4.30;99.90;;;;;;10285752;28;20054;-69
2020/12/12 01:09:21;;;;;;;50.95;19.25;;;4.20;99.90;;;;;;10282276;28;20093;-69
2020/12/12 01:14:23;;;;;;;45.38;18.00;;;4.30;99.90;;;;;;10281949;28;20156;-69
2020/12/12 01:19:24;;;;;;;47.25;18.02;;;4.30;99.90;;;;;;10294802;28;20061;-69
2020/12/12 01:24:25;;;;;;;45.70;18.67;;;4.30;99.90;;;;;;10274198;28;20066;-69
2020/12/12 01:29:26;;;;;;;38.95;16.60;;;4.30;99.90;;;;;;10279762;28;20754;-70
2020/12/12 01:34:27;;;;;;;40.67;16.45;;;4.30;99.90;;;;;;10271266;28;20057;-69
2020/12/12 01:39:28;;;;;;;41.38;16.83;;;4.30;99.90;;;;;;10274756;28;20097;-69
2020/12/12 01:44:30;;;;;;;46.45;18.45;;;4.40;99.90;;;;;;10279734;28;20059;-69
2020/12/12 01:49:31;;;;;;;35.85;15.98;;;4.40;99.90;;;;;;10281541;28;20054;-69
2020/12/12 01:54:32;;;;;;;39.15;15.65;;;4.40;99.90;;;;;;10277415;28;20059;-69
2020/12/12 01:59:34;;;;;;;37.78;15.50;;;4.40;99.90;;;;;;10279601;28;20065;-69
2020/12/12 02:04:37;;;;;;;41.28;16.08;;;4.40;99.90;;;;;;10290003;28;20062;-68
2020/12/12 02:09:38;;;;;;;36.80;15.77;;;4.40;99.90;;;;;;10276641;28;20178;-68
2020/12/12 02:14:40;;;;;;;41.70;16.67;;;4.40;99.90;;;;;;10282161;28;20050;-69
2020/12/12 02:19:41;;;;;;;39.53;15.95;;;4.40;99.90;;;;;;10277096;28;20535;-68
2020/12/12 02:24:42;;;;;;;37.30;15.60;;;4.50;99.90;;;;;;10272666;28;20043;-69
2020/12/12 02:29:49;;;;;;;41.33;17.35;;;4.50;99.90;;;;;;10278090;28;20053;-68
2020/12/12 02:34:50;;;;;;;29.00;14.75;;;4.50;99.90;;;;;;10277464;28;20485;-69
2020/12/12 02:39:51;;;;;;;35.75;14.70;;;4.50;99.90;;;;;;10281488;28;20046;-69
2020/12/12 02:44:54;;;;;;;30.23;14.43;;;4.50;99.90;;;;;;10273914;28;20399;-69
2020/12/12 02:50:05;;;;;;;35.97;14.57;;;4.50;99.90;;;;;;10277129;28;20058;-69
2020/12/12 02:55:08;;;;;;;38.28;15.18;;;4.50;99.90;;;;;;10279222;28;20109;-69
2020/12/12 03:00:15;;;;;;;35.03;14.43;;;4.50;99.90;;;;;;10280599;28;20050;-69
2020/12/12 03:05:18;;;;;;;35.10;15.43;;;4.50;99.90;;;;;;10290733;28;20053;-68
2020/12/12 03:10:19;;;;;;;41.70;15.35;;;4.50;99.90;;;;;;10280392;28;20054;-69
2020/12/12 03:15:20;;;;;;;37.25;16.35;;;4.50;99.90;;;;;;10281143;28;20043;-68
2020/12/12 03:20:31;;;;;;;38.17;16.65;;;4.50;99.90;;;;;;10280151;28;20109;-68
2020/12/12 03:25:33;;;;;;;41.67;17.02;;;4.50;99.90;;;;;;10285963;28;20050;-68
2020/12/12 03:30:35;;;;;;;33.80;15.85;;;4.50;99.90;;;;;;10284504;28;20058;-68
2020/12/12 03:35:36;;;;;;;44.58;16.90;;;4.50;99.90;;;;;;10279124;28;20148;-68
2020/12/12 03:40:38;;;;;;;38.92;16.58;;;4.50;99.90;;;;;;10276554;28;20574;-68
2020/12/12 03:45:39;;;;;;;45.53;17.75;;;4.50;99.90;;;;;;10281462;28;20129;-68
2020/12/12 03:50:40;;;;;;;40.05;16.92;;;4.50;99.90;;;;;;10279305;28;20078;-68
2020/12/12 03:55:41;;;;;;;40.55;17.98;;;4.50;99.90;;;;;;10281783;28;20050;-68
2020/12/12 04:00:42;;;;;;;38.47;17.33;;;4.50;99.90;;;;;;10285713;28;20054;-68
2020/12/12 04:05:44;;;;;;;42.33;17.75;;;4.50;99.90;;;;;;10285810;28;20162;-68
2020/12/12 04:10:46;;;;;;;47.28;17.75;;;4.50;99.90;;;;;;10280226;28;20385;-68
2020/12/12 04:15:47;;;;;;;43.00;17.52;;;4.40;99.90;;;;;;10283846;28;20042;-68
2020/12/12 04:20:49;;;;;;;45.78;17.85;;;4.40;99.90;;;;;;10287043;28;20136;-68
2020/12/12 04:25:50;;;;;;;40.10;16.70;;;4.40;99.90;;;;;;10279761;28;20062;-68
2020/12/12 04:30:51;;;;;;;44.58;18.05;;;4.40;99.90;;;;;;10280112;28;20054;-68
2020/12/12 04:35:52;;;;;;;45.47;17.88;;;4.40;99.90;;;;;;10287638;28;20564;-69
2020/12/12 04:40:56;;;;;;;43.25;17.55;;;4.40;99.90;;;;;;10280068;28;20058;-68
2020/12/12 04:45:59;;;;;;;38.42;16.90;;;4.40;99.90;;;;;;10282234;28;20536;-69
2020/12/12 04:51:00;;;;;;;40.83;17.67;;;4.40;99.90;;;;;;10275769;28;20129;-68
2020/12/12 04:56:04;;;;;;;45.90;17.95;;;4.40;99.90;;;;;;10281699;28;20081;-68
2020/12/12 05:01:05;;;;;;;43.22;18.77;;;4.40;99.90;;;;;;10277954;28;20141;-68
2020/12/12 05:06:07;;;;;;;43.72;18.05;;;4.50;99.90;;;;;;10274834;28;20059;-68
2020/12/12 05:11:08;;;;;;;38.08;16.38;;;4.50;99.90;;;;;;10281639;28;20543;-68
2020/12/12 05:16:10;;;;;;;44.28;16.60;;;4.50;99.90;;;;;;10282564;28;20406;-69
2020/12/12 05:21:12;;;;;;;38.00;16.85;;;4.50;99.90;;;;;;10276476;28;20050;-69
2020/12/12 05:26:13;;;;;;;40.63;16.70;;;4.60;99.90;;;;;;10288127;28;20584;-69
2020/12/12 05:31:15;;;;;;;36.80;16.25;;;4.50;99.90;;;;;;10283026;28;20051;-69
2020/12/12 05:36:17;;;;;;;40.97;17.52;;;4.60;99.90;;;;;;10288094;28;20046;-69
2020/12/12 05:41:18;;;;;;;34.30;16.20;;;4.60;99.90;;;;;;10299873;28;20080;-69
2020/12/12 05:46:22;;;;;;;31.52;15.63;;;4.60;99.90;;;;;;10280004;28;20385;-70
2020/12/12 05:51:27;;;;;;;34.08;16.15;;;4.60;99.90;;;;;;10279611;28;20073;-70
2020/12/12 05:56:31;;;;;;;35.40;16.42;;;4.60;99.90;;;;;;10271110;28;20065;-70
2020/12/12 06:01:40;;;;;;;31.08;15.23;;;4.60;99.90;;;;;;10279753;28;20130;-70
2020/12/12 06:06:56;;;;;;;33.13;15.88;;;4.60;99.90;;;;;;10195516;28;20061;-70
2020/12/12 06:11:58;;;;;;;29.40;14.10;;;4.60;99.90;;;;;;10269196;28;20054;-70
2020/12/12 06:17:06;;;;;;;33.08;15.35;;;4.60;99.90;;;;;;10285432;28;20050;-70
2020/12/12 06:22:07;;;;;;;33.05;15.50;;;4.60;99.90;;;;;;10274547;28;20106;-70
2020/12/12 06:27:11;;;;;;;30.88;15.45;;;4.70;99.90;;;;;;10275119;28;20046;-69
2020/12/12 06:32:16;;;;;;;31.00;14.32;;;4.70;99.90;;;;;;10279594;28;20493;-70
2020/12/12 06:37:31;;;;;;;32.17;16.40;;;4.70;99.90;;;;;;10289023;28;20054;-70
2020/12/12 06:42:46;;;;;;;32.30;16.02;;;4.70;99.90;;;;;;10287805;28;20758;-70
2020/12/12 06:47:50;;;;;;;29.00;15.07;;;4.70;99.90;;;;;;10193229;28;20132;-70
2020/12/12 06:52:53;;;;;;;31.70;15.45;;;4.70;99.90;;;;;;10283477;28;20069;-70
2020/12/12 06:57:57;;;;;;;30.30;14.40;;;4.70;99.90;;;;;;10281260;28;20137;-70
2020/12/12 07:03:06;;;;;;;29.08;14.52;;;4.70;99.90;;;;;;10286016;28;20061;-70
2020/12/12 07:08:09;;;;;;;28.67;13.50;;;4.70;99.90;;;;;;10280942;28;20050;-69
2020/12/12 07:13:14;;;;;;;31.80;14.98;;;4.70;99.90;;;;;;10280675;28;20047;-70
2020/12/12 07:18:15;;;;;;;27.42;13.57;;;4.70;99.90;;;;;;10282735;28;20401;-73
2020/12/12 07:23:18;;;;;;;28.83;13.52;;;4.70;99.90;;;;;;10283467;28;20058;-73
2020/12/12 07:28:19;;;;;;;27.83;12.77;;;4.70;99.90;;;;;;10288123;28;20496;-73
2020/12/12 07:33:20;;;;;;;24.20;12.13;;;4.70;99.90;;;;;;10281345;28;20548;-73
2020/12/12 07:38:23;;;;;;;21.38;12.27;;;4.80;99.90;;;;;;10276477;28;20057;-72
2020/12/12 07:43:24;;;;;;;25.20;12.45;;;4.70;99.90;;;;;;10279722;28;20058;-72
2020/12/12 07:48:27;;;;;;;24.75;11.80;;;4.70;99.90;;;;;;10279304;28;20061;-72
2020/12/12 07:53:28;;;;;;;21.23;11.60;;;4.70;99.90;;;;;;10281706;28;20073;-72
2020/12/12 07:58:32;;;;;;;22.60;11.35;;;4.70;99.90;;;;;;10280396;28;20144;-73
2020/12/12 08:03:42;;;;;;;25.13;11.05;;;4.70;99.90;;;;;;10279497;28;20050;-72
2020/12/12 08:08:53;;;;;;;23.90;12.20;;;4.70;99.90;;;;;;10283216;28;20140;-72
2020/12/12 08:13:54;;;;;;;17.38;10.48;;;4.80;99.90;;;;;;10279777;28;20058;-73
2020/12/12 08:19:03;;;;;;;20.35;10.95;;;4.70;99.90;;;;;;10285822;28;20091;-72
2020/12/12 08:24:06;;;;;;;20.38;11.45;;;4.80;99.90;;;;;;10296162;28;20043;-72
2020/12/12 08:29:08;;;;;;;20.77;11.48;;;4.70;99.90;;;;;;10275157;28;20502;-73
2020/12/12 08:34:18;;;;;;;21.17;10.68;;;4.80;99.90;;;;;;10295213;28;20054;-72
2020/12/12 08:39:25;;;;;;;20.75;11.32;;;4.80;99.90;;;;;;10285496;28;20592;-73
2020/12/12 08:44:26;;;;;;;24.25;10.52;;;4.80;99.90;;;;;;10303100;28;20105;-71
2020/12/12 08:49:54;;;;;;;17.92;10.45;;;4.80;99.90;;;;;;10301121;28;20386;-71
2020/12/12 08:55:00;;;;;;;22.23;10.85;;;4.90;99.90;;;;;;10311359;28;20057;-72
2020/12/12 09:00:04;;;;;;;20.23;10.38;;;4.80;99.90;;;;;;10302865;28;20038;-71
2020/12/12 09:05:11;;;;;;;24.70;13.73;;;4.90;99.90;;;;;;10321663;28;20129;-72
2020/12/12 09:10:14;;;;;;;18.25;9.98;;;5.00;99.90;;;;;;10301074;28;20097;-74
2020/12/12 09:15:16;;;;;;;25.40;13.20;;;5.20;99.90;;;;;;10303329;28;20078;-71
2020/12/12 09:20:17;;;;;;;23.60;13.05;;;5.20;99.90;;;;;;10290165;28;20058;-72
2020/12/12 09:25:18;;;;;;;25.00;13.02;;;5.10;99.90;;;;;;10286979;28;20438;-70
2020/12/12 09:30:20;;;;;;;29.25;14.40;;;5.20;99.90;;;;;;10280271;28;20481;-71
2020/12/12 09:35:21;;;;;;;28.85;15.52;;;5.20;99.90;;;;;;10289749;28;20061;-72
2020/12/12 09:40:22;;;;;;;31.02;16.52;;;5.20;99.90;;;;;;10279759;28;20547;-71
2020/12/12 09:45:23;;;;;;;28.50;15.25;;;5.20;99.90;;;;;;10271047;28;20327;-72
2020/12/12 09:50:33;;;;;;;28.75;15.35;;;5.20;99.90;;;;;;10288672;28;20046;-69
2020/12/12 09:55:36;;;;;;;24.20;13.68;;;5.20;99.90;;;;;;10282012;28;20055;-69
2020/12/12 10:00:40;;;;;;;25.17;15.50;;;5.20;99.90;;;;;;10282700;28;20057;-69
2020/12/12 10:05:41;;;;;;;31.55;16.83;;;5.30;99.90;;;;;;10289084;28;20565;-69
2020/12/12 10:10:43;;;;;;;28.63;16.23;;;5.40;99.90;;;;;;10263292;28;20077;-69
2020/12/12 10:15:46;;;;;;;30.13;16.60;;;5.40;99.90;;;;;;10272448;28;20050;-69
2020/12/12 10:20:47;;;;;;;33.65;16.73;;;5.40;99.90;;;;;;10275955;28;20060;-69
2020/12/12 10:25:48;;;;;;;29.50;15.10;;;5.30;99.90;;;;;;10280863;28;20050;-69
2020/12/12 10:30:49;;;;;;;26.05;14.85;;;5.30;99.90;;;;;;10275151;28;20165;-70
2020/12/12 10:35:51;;;;;;;23.33;14.05;;;5.40;99.90;;;;;;10282864;28;20452;-69
2020/12/12 10:41:10;;;;;;;27.80;14.85;;;5.40;99.90;;;;;;10284853;28;20046;-69
2020/12/12 10:46:12;;;;;;;27.60;15.43;;;5.40;99.90;;;;;;10280500;28;20448;-69
2020/12/12 10:51:16;;;;;;;31.98;15.07;;;5.60;99.90;;;;;;10284021;28;20133;-68
2020/12/12 10:56:17;;;;;;;27.45;15.23;;;5.50;99.90;;;;;;10293128;28;20054;-69
2020/12/12 11:01:18;;;;;;;26.77;14.88;;;5.60;99.90;;;;;;10299735;28;20054;-70
2020/12/12 11:06:20;;;;;;;28.08;14.75;;;5.70;99.90;;;;;;10296267;28;20057;-69
2020/12/12 11:11:21;;;;;;;31.35;16.35;;;5.70;99.90;;;;;;10293564;28;20062;-69
2020/12/12 11:16:28;;;;;;;28.00;15.93;;;5.80;99.90;;;;;;10284954;28;20050;-69
2020/12/12 11:21:29;;;;;;;26.25;15.38;;;5.70;99.90;;;;;;10284690;28;20188;-69
2020/12/12 11:26:30;;;;;;;30.63;16.98;;;5.80;99.90;;;;;;10290127;28;20054;-70
2020/12/12 11:31:32;;;;;;;24.65;14.75;;;5.80;99.90;;;;;;10288540;28;20464;-69
2020/12/12 11:46:55;;;;;;;30.02;14.50;;;5.80;99.90;;;;;;10208103;28;20050;-69
2020/12/12 11:51:56;;;;;;;24.33;14.27;;;5.80;99.90;;;;;;10290760;28;20498;-69
2020/12/12 11:56:57;;;;;;;21.92;13.23;;;5.70;99.90;;;;;;10309973;28;20120;-69
2020/12/12 12:01:59;;;;;;;28.60;16.67;;;5.60;99.90;;;;;;10289026;28;20061;-69
2020/12/12 12:07:04;;;;;;;27.45;14.20;;;5.60;99.90;;;;;;10289388;28;20109;-69
2020/12/12 12:12:05;;;;;;;23.35;13.98;;;5.60;99.90;;;;;;10289586;28;20116;-69
2020/12/12 12:17:06;;;;;;;26.02;15.57;;;5.90;99.90;;;;;;10290380;28;20050;-69
2020/12/12 12:22:08;;;;;;;30.13;15.73;;;6.00;99.90;;;;;;10290449;28;20184;-69
2020/12/12 12:27:09;;;;;;;24.88;14.23;;;5.90;99.90;;;;;;10296010;28;20054;-70
2020/12/12 12:32:10;;;;;;;27.70;15.35;;;5.80;99.90;;;;;;10292497;28;20050;-70
2020/12/12 12:37:18;;;;;;;29.25;16.10;;;5.90;99.90;;;;;;10287004;28;20522;-69
2020/12/12 12:42:22;;;;;;;28.33;15.27;;;5.80;99.90;;;;;;10291543;28;20050;-69
2020/12/12 12:47:24;;;;;;;27.08;13.75;;;5.80;99.90;;;;;;10287373;28;20046;-69
2020/12/12 12:52:25;;;;;;;28.58;14.93;;;5.80;99.90;;;;;;10288712;28;20046;-69
2020/12/12 12:57:26;;;;;;;30.85;15.90;;;5.80;99.90;;;;;;10287429;28;20133;-70
2020/12/12 13:02:27;;;;;;;30.42;15.63;;;5.80;99.90;;;;;;10282700;28;20090;-70
2020/12/12 13:07:29;;;;;;;40.13;17.75;;;5.80;99.90;;;;;;10290893;28;20039;-70
2020/12/12 13:12:30;;;;;;;29.17;15.15;;;5.80;99.90;;;;;;10286668;28;20125;-70
2020/12/12 13:17:32;;;;;;;31.92;16.95;;;5.80;99.90;;;;;;10287212;28;20065;-70
2020/12/12 13:22:33;;;;;;;32.22;15.85;;;5.80;99.90;;;;;;10257555;28;20050;-69
2020/12/12 13:27:34;;;;;;;29.65;16.65;;;5.80;99.90;;;;;;10288026;28;20058;-69
2020/12/12 13:32:35;;;;;;;36.55;16.70;;;5.90;99.90;;;;;;10289562;28;20355;-70
2020/12/12 13:37:37;;;;;;;32.92;16.80;;;5.80;99.90;;;;;;10281107;28;20049;-69
2020/12/12 13:42:38;;;;;;;32.13;16.30;;;5.80;99.90;;;;;;10286139;28;20050;-68
2020/12/12 13:47:40;;;;;;;36.95;17.33;;;5.90;99.90;;;;;;10299511;28;20104;-70
2020/12/12 13:52:41;;;;;;;34.22;17.30;;;5.90;99.90;;;;;;10289235;28;20048;-70
2020/12/12 13:57:42;;;;;;;33.83;15.85;;;6.00;99.90;;;;;;10292452;28;20074;-70
2020/12/12 14:02:44;;;;;;;35.53;16.98;;;6.00;99.90;;;;;;10284754;28;20058;-70
2020/12/12 14:07:47;;;;;;;36.53;16.83;;;6.00;99.90;;;;;;10287205;28;20058;-70
2020/12/12 14:23:32;;;;;;;37.88;18.40;;;5.90;99.90;;;;;;10278757;28;20046;-69
2020/12/12 14:28:35;;;;;;;37.20;19.25;;;5.90;99.90;;;;;;10283522;28;20042;-69
2020/12/12 14:33:36;;;;;;;38.42;19.55;;;6.00;99.90;;;;;;10280176;28;20070;-68
2020/12/12 14:38:38;;;;;;;44.92;22.90;;;5.90;99.90;;;;;;10278400;28;20057;-71
2020/12/12 14:43:39;;;;;;;37.42;18.58;;;5.90;99.90;;;;;;10280592;28;20054;-71
2020/12/12 14:48:40;;;;;;;35.47;18.17;;;5.80;99.90;;;;;;10282607;28;20060;-70
2020/12/12 14:53:41;;;;;;;38.00;16.98;;;5.80;99.90;;;;;;10288166;28;20057;-69
2020/12/12 14:58:43;;;;;;;35.42;17.02;;;5.70;99.90;;;;;;10296327;28;20046;-69
2020/12/12 15:03:44;;;;;;;34.75;18.17;;;5.60;99.90;;;;;;10293282;28;20053;-69
2020/12/12 15:08:45;;;;;;;40.35;19.65;;;5.70;99.90;;;;;;10294126;28;20046;-69
2020/12/12 15:13:46;;;;;;;37.15;20.13;;;5.70;99.90;;;;;;10287854;28;20486;-70
2020/12/12 15:18:48;;;;;;;36.45;18.00;;;5.70;99.90;;;;;;10294463;28;20481;-70
2020/12/12 15:23:49;;;;;;;34.83;16.40;;;5.70;99.90;;;;;;10293133;28;20077;-69
2020/12/12 15:28:50;;;;;;;36.65;16.58;;;5.70;99.90;;;;;;10293639;28;20116;-70
2020/12/12 15:33:52;;;;;;;36.72;16.25;;;5.80;99.90;;;;;;10291332;28;20050;-70
2020/12/12 15:38:53;;;;;;;34.30;17.63;;;5.70;99.90;;;;;;10293353;28;20058;-70
2020/12/12 15:43:54;;;;;;;44.30;19.85;;;5.80;99.90;;;;;;10293814;28;20108;-69
2020/12/12 15:48:57;;;;;;;42.42;19.10;;;5.70;99.90;;;;;;10291191;28;20050;-69
2020/12/12 15:53:58;;;;;;;36.13;17.17;;;5.70;99.90;;;;;;10293037;28;20057;-69
2020/12/12 15:58:59;;;;;;;35.60;17.52;;;5.70;99.90;;;;;;10292168;28;20516;-69
2020/12/12 16:04:01;;;;;;;37.28;18.92;;;5.80;99.90;;;;;;10288630;28;20054;-69
2020/12/12 16:09:04;;;;;;;42.40;18.92;;;5.70;99.90;;;;;;10288522;28;20061;-69
2020/12/12 16:14:06;;;;;;;41.67;18.17;;;5.70;99.90;;;;;;10281405;28;20508;-70
2020/12/12 16:19:07;;;;;;;39.58;16.98;;;5.70;99.90;;;;;;10288394;28;20065;-69
2020/12/12 16:24:09;;;;;;;42.28;18.80;;;5.70;99.90;;;;;;10289420;28;20047;-69
2020/12/12 16:29:10;;;;;;;41.97;20.52;;;5.70;99.90;;;;;;10291588;28;20053;-70
2020/12/12 16:34:11;;;;;;;48.13;18.50;;;5.60;99.90;;;;;;10287407;28;20053;-69
2020/12/12 16:39:16;;;;;;;42.70;17.55;;;5.60;99.90;;;;;;10286905;28;20065;-70
2020/12/12 16:44:18;;;;;;;46.58;21.90;;;5.70;99.90;;;;;;10275866;28;20034;-69
2020/12/12 16:49:19;;;;;;;46.28;19.88;;;5.70;99.90;;;;;;10291629;28;20132;-70
2020/12/12 16:54:21;;;;;;;44.08;20.08;;;5.60;99.90;;;;;;10292327;28;20058;-69
2020/12/12 16:59:23;;;;;;;52.53;21.60;;;5.60;99.90;;;;;;10292048;28;20535;-69
2020/12/12 17:04:25;;;;;;;51.28;21.27;;;5.60;99.90;;;;;;10297235;28;20199;-71
2020/12/12 17:09:26;;;;;;;50.70;19.23;;;5.60;99.90;;;;;;10297672;28;20053;-69
2020/12/12 17:14:29;;;;;;;54.15;23.27;;;5.60;99.90;;;;;;10299479;28;20213;-69
2020/12/12 17:19:31;;;;;;;48.05;21.77;;;5.60;99.90;;;;;;10297620;28;20061;-69
2020/12/12 17:24:32;;;;;;;50.20;21.42;;;5.60;99.90;;;;;;10298250;28;20497;-71
2020/12/12 17:29:33;;;;;;;47.80;20.30;;;5.60;99.90;;;;;;10287968;28;20050;-68
2020/12/12 17:34:35;;;;;;;48.78;19.13;;;5.70;99.90;;;;;;10298632;28;20062;-70
2020/12/12 17:39:37;;;;;;;52.13;20.10;;;5.70;99.90;;;;;;10294153;28;20038;-69
2020/12/12 17:44:40;;;;;;;52.15;22.92;;;5.60;99.90;;;;;;10290480;28;20046;-70
2020/12/12 17:49:41;;;;;;;54.53;22.90;;;5.60;99.90;;;;;;10290115;28;20463;-70
2020/12/12 17:54:43;;;;;;;48.28;20.02;;;5.60;99.90;;;;;;10282001;28;20066;-69
2020/12/12 17:59:44;;;;;;;53.03;20.30;;;5.60;99.90;;;;;;10290462;28;20503;-68
2020/12/12 18:04:46;;;;;;;53.00;20.98;;;5.60;99.90;;;;;;10288953;28;20050;-68
2020/12/12 18:09:47;;;;;;;54.00;20.85;;;5.60;99.90;;;;;;10293958;28;20058;-69
2020/12/12 18:14:48;;;;;;;49.72;20.65;;;5.60;99.90;;;;;;10292129;28;20078;-70
2020/12/12 18:19:50;;;;;;;50.03;19.55;;;5.60;99.90;;;;;;10283078;28;20046;-69
2020/12/12 18:24:51;;;;;;;52.83;21.02;;;5.60;99.90;;;;;;10282843;28;20050;-69
2020/12/12 18:29:52;;;;;;;50.65;21.65;;;5.60;99.90;;;;;;10284664;28;20101;-70
2020/12/12 18:34:54;;;;;;;55.72;21.13;;;5.60;99.90;;;;;;10296607;28;20392;-69
2020/12/12 18:39:55;;;;;;;58.35;22.08;;;5.60;99.90;;;;;;10299657;28;20050;-69
2020/12/12 18:44:56;;;;;;;54.95;20.77;;;5.60;99.90;;;;;;10294297;28;20051;-68
2020/12/12 18:49:58;;;;;;;58.53;21.83;;;5.50;99.90;;;;;;10296544;28;20043;-68
2020/12/12 18:55:00;;;;;;;57.72;22.17;;;5.50;99.90;;;;;;10302088;28;20405;-68
2020/12/12 19:00:02;;;;;;;72.60;25.63;;;5.60;99.90;;;;;;10291613;28;20412;-68
2020/12/12 19:05:05;;;;;;;60.53;21.63;;;5.50;99.90;;;;;;10300277;28;20073;-68
2020/12/12 19:10:10;;;;;;;72.47;30.10;;;5.50;99.90;;;;;;10299009;28;20050;-68
2020/12/12 19:15:11;;;;;;;72.85;25.25;;;5.50;99.90;;;;;;10300988;28;20056;-68
2020/12/12 19:20:12;;;;;;;69.25;23.92;;;5.50;99.90;;;;;;10295922;28;20050;-68
2020/12/12 19:25:14;;;;;;;67.07;23.50;;;5.50;99.90;;;;;;10298857;28;20056;-70
2020/12/12 19:30:15;;;;;;;78.38;23.70;;;5.50;99.90;;;;;;10298551;28;21343;-69
2020/12/12 19:35:18;;;;;;;89.15;29.70;;;5.40;99.90;;;;;;10306529;28;20061;-69
2020/12/12 19:40:20;;;;;;;86.50;26.27;;;5.30;99.90;;;;;;10297180;28;20049;-69
2020/12/12 19:45:21;;;;;;;103.38;29.40;;;5.40;99.90;;;;;;10291456;28;20813;-69
2020/12/12 19:50:23;;;;;;;96.32;27.00;;;5.30;99.90;;;;;;10286987;28;20062;-69
2020/12/12 19:55:24;;;;;;;87.53;27.27;;;5.40;99.90;;;;;;10298047;28;20101;-69
2020/12/12 20:00:26;;;;;;;98.35;30.13;;;5.50;99.90;;;;;;10292111;28;20915;-69
2020/12/12 20:05:29;;;;;;;115.93;28.48;;;5.50;99.90;;;;;;10290886;28;20108;-69
2020/12/12 20:10:31;;;;;;;93.72;27.33;;;5.50;99.90;;;;;;10288465;28;20046;-68
2020/12/12 20:15:36;;;;;;;104.45;27.88;;;5.50;99.90;;;;;;10267806;28;20100;-68
2020/12/12 20:20:37;;;;;;;110.78;27.05;;;5.50;99.90;;;;;;10290005;28;20043;-69
2020/12/12 20:25:39;;;;;;;110.18;29.77;;;5.60;99.90;;;;;;10287260;28;20057;-68
2020/12/12 20:30:40;;;;;;;110.68;29.00;;;5.60;99.90;;;;;;10298214;28;20397;-69
2020/12/12 20:35:42;;;;;;;99.70;29.70;;;5.60;99.90;;;;;;10288033;28;20050;-68
2020/12/12 20:40:45;;;;;;;135.45;29.25;;;5.70;99.90;;;;;;10288472;28;20401;-69
2020/12/12 20:45:46;;;;;;;98.35;27.95;;;5.50;99.90;;;;;;10294127;28;20042;-67
2020/12/12 20:50:48;;;;;;;126.95;29.50;;;5.60;99.90;;;;;;10289837;28;20558;-68
2020/12/12 20:55:49;;;;;;;144.52;31.02;;;5.60;99.90;;;;;;10290888;28;20485;-68
2020/12/12 21:00:51;;;;;;;159.90;33.88;;;5.70;99.90;;;;;;10281645;28;20050;-68
2020/12/12 21:05:52;;;;;;;196.05;59.55;;;5.60;99.90;;;;;;10294230;28;20046;-69
2020/12/12 21:10:54;;;;;;;165.07;33.22;;;5.70;99.90;;;;;;10289075;28;20061;-68
2020/12/12 21:15:55;;;;;;;176.82;32.65;;;5.70;99.90;;;;;;10290084;28;20447;-68
2020/12/12 21:20:57;;;;;;;178.98;34.03;;;5.70;99.90;;;;;;10280374;28;20153;-69
2020/12/12 21:26:06;;;;;;;197.45;34.85;;;5.60;99.90;;;;;;10287752;28;20675;-68
2020/12/12 21:31:07;;;;;;;140.25;33.70;;;5.70;99.90;;;;;;10283679;28;20114;-68
2020/12/12 21:36:10;;;;;;;144.95;34.72;;;5.70;99.90;;;;;;10289077;28;20049;-67
2020/12/12 21:41:11;;;;;;;145.77;35.05;;;5.70;99.90;;;;;;10289036;28;20051;-69
2020/12/12 21:46:13;;;;;;;154.82;32.88;;;5.80;99.90;;;;;;10284696;28;20049;-68
2020/12/12 21:51:14;;;;;;;198.57;38.70;;;5.80;99.90;;;;;;10293372;28;20666;-68
2020/12/12 21:56:15;;;;;;;158.40;34.03;;;5.70;99.90;;;;;;10285688;28;20511;-69
2020/12/12 22:01:17;;;;;;;182.25;31.45;;;5.70;99.90;;;;;;10294324;28;20057;-68
2020/12/12 22:06:36;;;;;;;337.52;37.00;;;5.70;99.90;;;;;;10286541;28;20560;-68
2020/12/12 22:11:38;;;;;;;305.63;37.83;;;5.60;99.90;;;;;;10306517;28;20473;-68
2020/12/12 22:16:39;;;;;;;176.43;32.28;;;5.60;99.90;;;;;;10288605;28;20050;-68
2020/12/12 22:21:40;;;;;;;164.50;33.05;;;5.70;99.90;;;;;;10278097;28;20113;-68
2020/12/12 22:26:42;;;;;;;142.05;32.60;;;5.70;99.90;;;;;;10287178;28;20108;-68
2020/12/12 22:31:43;;;;;;;164.98;34.22;;;5.70;99.90;;;;;;10292207;28;20058;-69
2020/12/12 22:36:45;;;;;;;199.75;35.60;;;5.80;99.90;;;;;;10300350;28;20425;-69
2020/12/12 22:41:46;;;;;;;146.52;32.42;;;5.80;99.90;;;;;;10285949;28;20058;-68
2020/12/12 22:46:47;;;;;;;217.73;37.90;;;5.80;99.90;;;;;;10289979;28;20054;-68
2020/12/12 22:52:00;;;;;;;170.50;33.72;;;5.80;99.90;;;;;;10284326;28;20047;-68
2020/12/12 22:57:01;;;;;;;157.88;33.15;;;5.80;99.90;;;;;;10286423;28;20401;-68
2020/12/12 23:02:09;;;;;;;134.43;30.60;;;5.90;99.90;;;;;;10287419;28;20050;-68
2020/12/12 23:07:12;;;;;;;162.52;32.05;;;5.90;99.90;;;;;;10290285;28;20109;-68
2020/12/12 23:12:13;;;;;;;199.02;36.08;;;5.80;99.90;;;;;;10291528;28;20073;-68
2020/12/12 23:17:15;;;;;;;405.48;44.20;;;5.80;99.90;;;;;;10295002;28;20061;-67
2020/12/12 23:22:16;;;;;;;184.70;36.33;;;5.70;99.90;;;;;;10282322;28;20046;-70
2020/12/12 23:27:17;;;;;;;169.38;33.88;;;5.70;99.90;;;;;;10285284;28;20065;-70
2020/12/12 23:32:18;;;;;;;229.55;35.97;;;5.80;99.90;;;;;;10279731;28;20062;-70
2020/12/12 23:37:20;;;;;;;177.93;34.33;;;5.70;99.90;;;;;;10279543;28;20050;-70
2020/12/12 23:42:21;;;;;;;177.38;35.08;;;5.70;99.90;;;;;;10279854;28;20050;-70
2020/12/12 23:47:22;;;;;;;215.88;35.63;;;5.80;99.90;;;;;;10289933;28;20637;-70
2020/12/12 23:52:29;;;;;;;173.48;35.40;;;5.70;99.90;;;;;;10284772;28;20105;-70
2020/12/12 23:57:30;;;;;;;156.60;33.95;;;5.70;99.90;;;;;;10304870;28;20058;-70
